createdAt,value
2022-11-01T00:00:22.363Z,0.00
2022-11-01T00:01:22.277Z,0.00
2022-11-01T00:02:22.262Z,0.00
2022-11-01T00:03:22.207Z,0.00
2022-11-01T00:04:22.212Z,0.00
2022-11-01T00:05:22.173Z,0.00
2022-11-01T00:06:22.180Z,0.00
2022-11-01T00:07:22.299Z,0.00
2022-11-01T00:08:22.259Z,0.00
2022-11-01T00:09:22.151Z,0.00
2022-11-01T00:10:22.130Z,0.00
2022-11-01T00:11:22.127Z,0.00
2022-11-01T00:12:22.126Z,0.00
2022-11-01T00:13:22.105Z,0.00
2022-11-01T00:14:22.072Z,0.00
2022-11-01T00:15:22.064Z,0.00
2022-11-01T00:16:22.065Z,0.00
2022-11-01T00:17:22.077Z,0.00
2022-11-01T00:18:22.087Z,0.00
2022-11-01T00:19:22.237Z,0.00
2022-11-01T00:20:22.021Z,0.00
2022-11-01T00:21:22.077Z,0.00
2022-11-01T00:22:22.027Z,0.00
2022-11-01T00:23:22.016Z,0.00
2022-11-01T00:24:22.004Z,0.00
2022-11-01T00:25:21.975Z,0.00
2022-11-01T00:26:21.976Z,0.00
2022-11-01T00:27:22.093Z,0.00
2022-11-01T00:28:21.943Z,0.00
2022-11-01T00:29:21.905Z,0.00
2022-11-01T00:30:21.910Z,0.00
2022-11-01T00:31:21.887Z,0.00
2022-11-01T00:32:21.900Z,0.00
2022-11-01T00:33:21.894Z,0.00
2022-11-01T00:34:21.865Z,0.00
2022-11-01T00:35:21.841Z,0.00
2022-11-01T00:36:21.872Z,0.00
2022-11-01T00:37:22.077Z,0.00
2022-11-01T00:38:21.834Z,0.00
2022-11-01T00:39:21.800Z,0.00
2022-11-01T00:40:21.809Z,0.00
2022-11-01T00:41:22.897Z,0.00
2022-11-01T00:42:21.764Z,0.00
2022-11-01T00:43:21.757Z,0.00
2022-11-01T00:44:21.748Z,0.00
2022-11-01T00:45:21.744Z,0.00
2022-11-01T00:46:21.738Z,0.00
2022-11-01T00:47:21.727Z,0.00
2022-11-01T00:48:21.746Z,0.00
2022-11-01T00:49:21.676Z,0.00
2022-11-01T00:50:21.677Z,0.00
2022-11-01T00:51:21.686Z,0.00
2022-11-01T00:52:21.714Z,0.00
2022-11-01T00:53:21.662Z,0.00
2022-11-01T00:54:21.656Z,0.00
2022-11-01T00:55:21.618Z,0.00
2022-11-01T00:56:21.689Z,0.00
2022-11-01T00:57:21.616Z,0.00
2022-11-01T00:58:21.717Z,0.00
2022-11-01T00:59:21.607Z,0.00
2022-11-01T01:00:21.613Z,0.00
2022-11-01T01:01:21.760Z,0.00
2022-11-01T01:02:21.593Z,0.00
2022-11-01T01:03:21.552Z,0.00
2022-11-01T01:04:21.538Z,0.00
2022-11-01T01:05:21.521Z,0.00
2022-11-01T01:06:21.507Z,0.00
2022-11-01T01:07:21.501Z,0.00
2022-11-01T01:08:21.467Z,0.00
2022-11-01T01:09:21.494Z,0.00
2022-11-01T01:10:21.485Z,0.00
2022-11-01T01:11:22.122Z,0.00
2022-11-01T01:12:21.452Z,0.00
2022-11-01T01:13:21.437Z,0.00
2022-11-01T01:14:21.571Z,0.00
2022-11-01T01:15:21.385Z,0.00
2022-11-01T01:16:21.401Z,0.00
2022-11-01T01:17:21.460Z,0.00
2022-11-01T01:18:21.378Z,0.00
2022-11-01T01:19:21.400Z,0.00
2022-11-01T01:20:21.365Z,0.00
2022-11-01T01:21:21.427Z,0.00
2022-11-01T01:22:21.338Z,0.00
2022-11-01T01:23:21.319Z,0.00
2022-11-01T01:24:21.361Z,0.00
2022-11-01T01:25:21.321Z,0.00
2022-11-01T01:26:21.318Z,0.00
2022-11-01T01:27:21.280Z,0.00
2022-11-01T01:28:21.275Z,0.00
2022-11-01T01:29:21.598Z,0.00
2022-11-01T01:30:21.257Z,0.00
2022-11-01T01:31:21.248Z,0.00
2022-11-01T01:32:21.214Z,0.00
2022-11-01T01:33:21.214Z,0.00
2022-11-01T01:34:21.210Z,0.00
2022-11-01T01:35:21.186Z,0.00
2022-11-01T01:36:21.208Z,0.00
2022-11-01T01:37:21.169Z,0.00
2022-11-01T01:38:21.156Z,0.00
2022-11-01T01:39:21.141Z,0.00
2022-11-01T01:40:21.137Z,0.00
2022-11-01T01:41:21.128Z,0.00
2022-11-01T01:42:21.105Z,0.00
2022-11-01T01:43:21.120Z,0.00
2022-11-01T01:44:21.092Z,0.00
2022-11-01T01:45:21.078Z,0.00
2022-11-01T01:46:21.093Z,0.00
2022-11-01T01:47:21.070Z,0.00
2022-11-01T01:48:21.085Z,0.00
2022-11-01T01:49:21.119Z,0.00
2022-11-01T01:50:21.118Z,0.00
2022-11-01T01:51:21.110Z,0.00
2022-11-01T01:52:21.010Z,0.00
2022-11-01T01:53:20.997Z,0.00
2022-11-01T01:54:20.988Z,0.00
2022-11-01T01:55:20.979Z,0.00
2022-11-01T01:56:20.960Z,0.00
2022-11-01T01:57:20.942Z,0.00
2022-11-01T01:58:20.932Z,0.00
2022-11-01T01:59:20.929Z,0.00
2022-11-01T02:00:21.071Z,0.00
2022-11-01T02:01:22.051Z,0.00
2022-11-01T02:02:21.846Z,0.00
2022-11-01T02:03:20.899Z,0.00
2022-11-01T02:04:20.864Z,0.00
2022-11-01T02:05:20.875Z,0.00
2022-11-01T02:06:20.911Z,0.00
2022-11-01T02:07:21.799Z,0.00
2022-11-01T02:08:20.854Z,0.00
2022-11-01T02:09:20.819Z,0.00
2022-11-01T02:10:20.851Z,0.00
2022-11-01T02:11:20.933Z,0.00
2022-11-01T02:12:20.818Z,0.00
2022-11-01T02:13:20.832Z,0.00
2022-11-01T02:14:20.800Z,0.00
2022-11-01T02:15:20.782Z,0.00
2022-11-01T02:16:20.764Z,0.00
2022-11-01T02:17:20.729Z,0.00
2022-11-01T02:18:20.705Z,0.00
2022-11-01T02:19:20.740Z,0.00
2022-11-01T02:20:20.732Z,0.00
2022-11-01T02:21:20.762Z,0.00
2022-11-01T02:22:20.669Z,0.00
2022-11-01T02:23:20.745Z,0.00
2022-11-01T02:24:20.697Z,0.00
2022-11-01T02:25:20.644Z,0.00
2022-11-01T02:26:20.648Z,0.00
2022-11-01T02:27:21.299Z,0.00
2022-11-01T02:28:20.642Z,0.00
2022-11-01T02:29:20.590Z,0.00
2022-11-01T02:30:20.613Z,0.00
2022-11-01T02:31:20.816Z,0.00
2022-11-01T02:32:20.550Z,0.00
2022-11-01T02:33:20.549Z,0.00
2022-11-01T02:34:20.738Z,0.00
2022-11-01T02:35:20.548Z,0.00
2022-11-01T02:36:20.509Z,0.00
2022-11-01T02:37:20.510Z,0.00
2022-11-01T02:38:20.500Z,0.00
2022-11-01T02:39:20.488Z,0.00
2022-11-01T02:40:20.459Z,0.00
2022-11-01T02:41:20.449Z,0.00
2022-11-01T02:42:20.451Z,0.00
2022-11-01T02:43:20.425Z,0.00
2022-11-01T02:44:20.432Z,0.00
2022-11-01T02:45:20.415Z,0.00
2022-11-01T02:46:20.511Z,0.00
2022-11-01T02:47:20.393Z,0.00
2022-11-01T02:48:20.392Z,0.00
2022-11-01T02:49:20.406Z,0.00
2022-11-01T02:50:20.466Z,0.00
2022-11-01T02:51:20.350Z,0.00
2022-11-01T02:52:20.407Z,0.00
2022-11-01T02:53:20.352Z,0.00
2022-11-01T02:54:20.308Z,0.00
2022-11-01T02:55:20.320Z,0.00
2022-11-01T02:56:20.291Z,0.00
2022-11-01T02:57:20.312Z,0.00
2022-11-01T02:58:20.279Z,0.00
2022-11-01T02:59:20.310Z,0.00
2022-11-01T03:00:20.255Z,0.00
2022-11-01T03:01:20.359Z,0.00
2022-11-01T03:02:20.475Z,0.00
2022-11-01T03:03:20.219Z,0.00
2022-11-01T03:04:20.265Z,0.00
2022-11-01T03:05:20.236Z,0.00
2022-11-01T03:06:20.192Z,0.00
2022-11-01T03:07:20.213Z,0.00
2022-11-01T03:08:20.214Z,0.00
2022-11-01T03:09:20.177Z,0.00
2022-11-01T03:10:20.258Z,0.00
2022-11-01T03:11:20.162Z,0.00
2022-11-01T03:12:20.191Z,0.00
2022-11-01T03:13:20.125Z,0.00
2022-11-01T03:14:20.090Z,0.00
2022-11-01T03:15:20.205Z,0.00
2022-11-01T03:16:20.093Z,0.00
2022-11-01T03:17:20.145Z,0.00
2022-11-01T03:18:21.146Z,0.00
2022-11-01T03:19:20.057Z,0.00
2022-11-01T03:20:20.067Z,0.00
2022-11-01T03:21:20.028Z,0.00
2022-11-01T03:22:20.006Z,0.00
2022-11-01T03:23:21.166Z,0.00
2022-11-01T03:24:19.982Z,0.00
2022-11-01T03:25:19.988Z,0.00
2022-11-01T03:26:19.954Z,0.00
2022-11-01T03:27:20.003Z,0.00
2022-11-01T03:28:19.946Z,0.00
2022-11-01T03:29:19.953Z,0.00
2022-11-01T03:30:19.954Z,0.00
2022-11-01T03:31:19.954Z,0.00
2022-11-01T03:32:19.895Z,0.00
2022-11-01T03:33:20.037Z,0.00
2022-11-01T03:34:19.872Z,0.00
2022-11-01T03:35:19.875Z,0.00
2022-11-01T03:36:19.875Z,0.00
2022-11-01T03:37:19.851Z,0.00
2022-11-01T03:38:19.842Z,0.00
2022-11-01T03:39:19.858Z,0.00
2022-11-01T03:40:19.819Z,0.00
2022-11-01T03:41:20.662Z,0.00
2022-11-01T03:42:20.675Z,0.00
2022-11-01T03:43:19.789Z,0.00
2022-11-01T03:44:19.776Z,0.00
2022-11-01T03:45:19.824Z,0.00
2022-11-01T03:46:19.775Z,0.00
2022-11-01T03:47:19.736Z,0.00
2022-11-01T03:48:19.724Z,0.00
2022-11-01T03:49:19.715Z,0.00
2022-11-01T03:50:19.705Z,0.00
2022-11-01T03:51:19.702Z,0.00
2022-11-01T03:52:19.722Z,0.00
2022-11-01T03:53:19.675Z,0.00
2022-11-01T03:54:19.685Z,0.00
2022-11-01T03:55:19.682Z,0.00
2022-11-01T03:56:19.647Z,0.00
2022-11-01T03:57:19.634Z,0.00
2022-11-01T03:58:19.614Z,0.00
2022-11-01T03:59:19.606Z,0.00
2022-11-01T04:00:19.617Z,0.00
2022-11-01T04:01:19.657Z,0.00
2022-11-01T04:02:19.816Z,0.00
2022-11-01T04:03:19.554Z,0.00
2022-11-01T04:04:19.588Z,0.00
2022-11-01T04:05:19.557Z,0.00
2022-11-01T04:06:19.549Z,0.00
2022-11-01T04:07:19.539Z,0.00
2022-11-01T04:08:19.526Z,0.00
2022-11-01T04:09:19.521Z,0.00
2022-11-01T04:10:19.487Z,0.00
2022-11-01T04:11:19.484Z,0.00
2022-11-01T04:12:19.474Z,0.00
2022-11-01T04:13:19.465Z,0.00
2022-11-01T04:14:19.457Z,0.00
2022-11-01T04:15:19.436Z,0.00
2022-11-01T04:16:19.440Z,0.00
2022-11-01T04:17:19.424Z,0.00
2022-11-01T04:18:19.396Z,0.00
2022-11-01T04:19:19.412Z,0.00
2022-11-01T04:20:19.379Z,0.00
2022-11-01T04:21:19.375Z,0.00
2022-11-01T04:22:22.071Z,0.00
2022-11-01T04:23:20.380Z,0.00
2022-11-01T04:24:20.427Z,0.00
2022-11-01T04:25:19.319Z,0.00
2022-11-01T04:26:19.315Z,0.00
2022-11-01T04:27:20.163Z,0.00
2022-11-01T04:28:19.300Z,0.00
2022-11-01T04:29:19.289Z,0.00
2022-11-01T04:30:19.269Z,0.00
2022-11-01T04:31:19.265Z,0.00
2022-11-01T04:32:19.982Z,0.00
2022-11-01T04:33:19.248Z,0.00
2022-11-01T04:34:19.260Z,0.00
2022-11-01T04:35:19.507Z,0.00
2022-11-01T04:36:19.510Z,0.00
2022-11-01T04:37:19.243Z,0.00
2022-11-01T04:38:19.183Z,0.00
2022-11-01T04:39:19.180Z,0.00
2022-11-01T04:40:19.212Z,0.00
2022-11-01T04:41:19.146Z,0.00
2022-11-01T04:42:19.133Z,0.00
2022-11-01T04:43:19.124Z,0.00
2022-11-01T04:44:19.165Z,0.00
2022-11-01T04:45:19.112Z,0.00
2022-11-01T04:46:19.103Z,0.00
2022-11-01T04:47:19.081Z,0.00
2022-11-01T04:48:19.160Z,0.00
2022-11-01T04:49:19.060Z,0.00
2022-11-01T04:50:19.042Z,0.00
2022-11-01T04:51:19.027Z,0.00
2022-11-01T04:52:19.099Z,0.00
2022-11-01T04:53:19.102Z,0.00
2022-11-01T04:54:19.033Z,0.00
2022-11-01T04:55:19.009Z,0.00
2022-11-01T04:56:18.983Z,0.00
2022-11-01T04:57:18.994Z,0.00
2022-11-01T04:58:18.991Z,0.00
2022-11-01T04:59:18.961Z,0.00
2022-11-01T05:00:19.000Z,0.00
2022-11-01T05:01:19.189Z,0.00
2022-11-01T05:02:19.083Z,0.00
2022-11-01T05:03:18.910Z,0.00
2022-11-01T05:04:18.924Z,0.00
2022-11-01T05:05:18.908Z,0.00
2022-11-01T05:06:18.920Z,0.00
2022-11-01T05:07:18.951Z,0.00
2022-11-01T05:08:18.896Z,0.00
2022-11-01T05:09:18.854Z,0.00
2022-11-01T05:10:18.823Z,0.00
2022-11-01T05:11:18.963Z,0.00
2022-11-01T05:12:18.837Z,0.00
2022-11-01T05:13:18.842Z,0.00
2022-11-01T05:14:18.803Z,0.00
2022-11-01T05:15:18.785Z,0.00
2022-11-01T05:16:20.186Z,0.00
2022-11-01T05:17:19.614Z,0.00
2022-11-01T05:18:18.763Z,0.00
2022-11-01T05:19:18.820Z,0.00
2022-11-01T05:20:18.794Z,0.00
2022-11-01T05:21:18.790Z,0.00
2022-11-01T05:22:18.732Z,0.00
2022-11-01T05:23:18.683Z,0.00
2022-11-01T05:24:18.715Z,0.00
2022-11-01T05:25:18.805Z,0.00
2022-11-01T05:26:18.658Z,0.00
2022-11-01T05:27:18.632Z,0.00
2022-11-01T05:28:18.651Z,0.00
2022-11-01T05:29:24.903Z,0.00
2022-11-01T05:30:19.644Z,0.00
2022-11-01T05:31:18.612Z,0.00
2022-11-01T05:32:18.683Z,0.00
2022-11-01T05:33:19.472Z,0.00
2022-11-01T05:34:18.708Z,0.00
2022-11-01T05:35:19.755Z,0.00
2022-11-01T05:36:18.872Z,0.00
2022-11-01T05:37:18.601Z,0.00
2022-11-01T05:38:18.545Z,0.00
2022-11-01T05:39:18.515Z,0.00
2022-11-01T05:40:18.523Z,0.00
2022-11-01T05:41:18.516Z,0.00
2022-11-01T05:42:18.494Z,0.00
2022-11-01T05:43:18.475Z,0.00
2022-11-01T05:44:18.511Z,0.00
2022-11-01T05:45:18.479Z,0.00
2022-11-01T05:46:18.443Z,0.00
2022-11-01T05:47:18.439Z,0.00
2022-11-01T05:48:18.692Z,0.00
2022-11-01T05:49:18.411Z,0.00
2022-11-01T05:50:19.224Z,4.00
2022-11-01T05:51:19.245Z,4.00
2022-11-01T05:52:18.432Z,0.00
2022-11-01T05:53:18.388Z,4.00
2022-11-01T05:54:18.529Z,4.00
2022-11-01T05:55:18.339Z,4.00
2022-11-01T05:56:18.344Z,8.00
2022-11-01T05:57:18.340Z,8.00
2022-11-01T05:58:18.361Z,8.00
2022-11-01T05:59:18.334Z,12.00
2022-11-01T06:00:18.415Z,12.00
2022-11-01T06:01:19.370Z,16.00
2022-11-01T06:02:18.361Z,20.00
2022-11-01T06:03:18.687Z,20.00
2022-11-01T06:04:18.267Z,24.00
2022-11-01T06:05:18.713Z,28.00
2022-11-01T06:06:18.710Z,32.00
2022-11-01T06:07:18.251Z,32.00
2022-11-01T06:08:18.722Z,36.00
2022-11-01T06:09:18.343Z,44.00
2022-11-01T06:10:18.191Z,48.00
2022-11-01T06:11:19.377Z,48.00
2022-11-01T06:12:19.277Z,56.00
2022-11-01T06:13:18.117Z,60.00
2022-11-01T06:14:18.139Z,68.00
2022-11-01T06:15:18.120Z,72.00
2022-11-01T06:16:18.117Z,76.00
2022-11-01T06:17:19.307Z,80.00
2022-11-01T06:18:18.109Z,84.00
2022-11-01T06:19:18.064Z,88.00
2022-11-01T06:20:19.043Z,92.00
2022-11-01T06:21:18.102Z,100.00
2022-11-01T06:22:18.110Z,108.00
2022-11-01T06:23:18.039Z,112.00
2022-11-01T06:24:18.045Z,124.00
2022-11-01T06:25:18.042Z,132.00
2022-11-01T06:26:18.140Z,144.00
2022-11-01T06:27:19.359Z,160.00
2022-11-01T06:28:18.030Z,172.00
2022-11-01T06:29:17.986Z,188.00
2022-11-01T06:30:17.976Z,208.00
2022-11-01T06:31:18.142Z,228.00
2022-11-01T06:32:18.011Z,248.00
2022-11-01T06:33:17.945Z,268.00
2022-11-01T06:34:17.933Z,288.00
2022-11-01T06:35:17.918Z,308.00
2022-11-01T06:36:18.015Z,320.00
2022-11-01T06:37:17.859Z,340.00
2022-11-01T06:38:18.090Z,360.00
2022-11-01T06:39:17.857Z,380.00
2022-11-01T06:40:17.843Z,404.00
2022-11-01T06:41:17.820Z,436.00
2022-11-01T06:42:17.832Z,472.00
2022-11-01T06:43:17.831Z,508.00
2022-11-01T06:44:17.800Z,544.00
2022-11-01T06:45:17.839Z,568.00
2022-11-01T06:46:18.580Z,592.00
2022-11-01T06:47:17.771Z,616.00
2022-11-01T06:48:17.799Z,648.00
2022-11-01T06:49:19.208Z,680.00
2022-11-01T06:50:17.830Z,704.00
2022-11-01T06:51:17.898Z,732.00
2022-11-01T06:52:17.741Z,752.00
2022-11-01T06:53:18.917Z,768.00
2022-11-01T06:54:17.728Z,776.00
2022-11-01T06:55:17.701Z,792.00
2022-11-01T06:56:18.100Z,820.00
2022-11-01T06:57:18.155Z,856.00
2022-11-01T06:58:17.653Z,884.00
2022-11-01T06:59:17.609Z,884.00
2022-11-01T07:00:17.673Z,936.00
2022-11-01T07:01:17.724Z,944.00
2022-11-01T07:02:19.901Z,968.00
2022-11-01T07:03:17.790Z,984.00
2022-11-01T07:04:18.398Z,996.00
2022-11-01T07:05:18.799Z,1012.00
2022-11-01T07:06:17.629Z,1032.00
2022-11-01T07:07:18.611Z,1032.00
2022-11-01T07:08:18.556Z,1032.00
2022-11-01T07:09:17.670Z,1080.00
2022-11-01T07:10:17.632Z,1088.00
2022-11-01T07:11:18.768Z,1120.00
2022-11-01T07:12:18.632Z,1148.00
2022-11-01T07:13:18.545Z,1088.00
2022-11-01T07:14:17.495Z,1056.00
2022-11-01T07:15:17.519Z,1076.00
2022-11-01T07:16:17.468Z,1072.00
2022-11-01T07:17:17.457Z,1116.00
2022-11-01T07:18:18.574Z,1264.00
2022-11-01T07:19:18.611Z,1360.00
2022-11-01T07:20:17.462Z,1484.00
2022-11-01T07:21:17.478Z,1516.00
2022-11-01T07:22:18.191Z,1568.00
2022-11-01T07:23:17.395Z,1504.00
2022-11-01T07:24:18.515Z,1392.00
2022-11-01T07:25:17.397Z,1312.00
2022-11-01T07:26:17.465Z,1192.00
2022-11-01T07:27:20.558Z,1084.00
2022-11-01T07:28:17.353Z,1008.00
2022-11-01T07:29:17.437Z,1052.00
2022-11-01T07:30:17.353Z,1160.00
2022-11-01T07:31:18.348Z,1204.00
2022-11-01T07:32:17.332Z,1212.00
2022-11-01T07:33:18.924Z,1296.00
2022-11-01T07:34:18.079Z,1532.00
2022-11-01T07:35:18.233Z,1764.00
2022-11-01T07:36:17.283Z,1920.00
2022-11-01T07:37:21.827Z,1964.00
2022-11-01T07:38:17.656Z,2036.00
2022-11-01T07:39:18.645Z,2080.00
2022-11-01T07:40:18.278Z,2028.00
2022-11-01T07:41:45.219Z,2108.00
2022-11-01T07:42:18.321Z,2228.00
2022-11-01T07:43:17.149Z,2240.00
2022-11-01T07:45:28.269Z,2588.00
2022-11-01T07:46:27.367Z,2720.00
2022-11-01T07:47:27.334Z,2864.00
2022-11-01T07:48:27.208Z,2968.00
2022-11-01T07:49:27.200Z,3120.00
2022-11-01T07:50:27.175Z,3176.00
2022-11-01T07:51:27.307Z,3316.00
2022-11-01T07:52:27.184Z,3444.00
2022-11-01T07:53:27.144Z,3588.00
2022-11-01T07:54:27.338Z,3704.00
2022-11-01T07:55:27.459Z,3808.00
2022-11-01T07:56:27.471Z,3872.00
2022-11-01T07:57:27.113Z,3928.00
2022-11-01T07:58:27.131Z,3956.00
2022-11-01T07:59:27.095Z,3996.00
2022-11-01T08:00:27.278Z,4044.00
2022-11-01T08:01:27.636Z,4052.00
2022-11-01T08:02:27.405Z,4128.00
2022-11-01T08:03:27.116Z,4180.00
2022-11-01T08:04:27.041Z,4204.00
2022-11-01T08:05:27.099Z,4312.00
2022-11-01T08:06:27.004Z,4360.00
2022-11-01T08:07:27.177Z,4264.00
2022-11-01T08:08:27.224Z,4172.00
2022-11-01T08:09:27.142Z,4236.00
2022-11-01T08:10:27.043Z,4304.00
2022-11-01T08:11:26.951Z,4248.00
2022-11-01T08:12:26.929Z,4016.00
2022-11-01T08:13:26.920Z,3908.00
2022-11-01T08:14:27.040Z,4016.00
2022-11-01T08:15:27.236Z,4144.00
2022-11-01T08:16:27.252Z,4168.00
2022-11-01T08:17:27.264Z,4092.00
2022-11-01T08:18:26.911Z,4004.00
2022-11-01T08:19:26.858Z,3712.00
2022-11-01T08:20:27.018Z,3532.00
2022-11-01T08:21:26.832Z,3624.00
2022-11-01T08:22:26.820Z,3716.00
2022-11-01T08:23:26.947Z,3584.00
2022-11-01T08:24:26.808Z,3676.00
2022-11-01T08:25:26.845Z,3588.00
2022-11-01T08:26:26.781Z,3416.00
2022-11-01T08:27:28.300Z,3220.00
2022-11-01T08:28:27.035Z,3184.00
2022-11-01T08:29:27.003Z,3136.00
2022-11-01T08:30:26.742Z,3068.00
2022-11-01T08:31:26.736Z,3152.00
2022-11-01T08:32:27.041Z,3208.00
2022-11-01T08:33:26.703Z,2996.00
2022-11-01T08:34:27.396Z,2868.00
2022-11-01T08:35:26.680Z,2768.00
2022-11-01T08:36:26.799Z,2720.00
2022-11-01T08:37:26.929Z,2856.00
2022-11-01T08:38:26.644Z,2888.00
2022-11-01T08:39:26.640Z,2896.00
2022-11-01T08:40:26.626Z,3052.00
2022-11-01T08:41:26.732Z,3172.00
2022-11-01T08:42:26.612Z,3056.00
2022-11-01T08:43:26.629Z,2968.00
2022-11-01T08:44:26.581Z,2872.00
2022-11-01T08:45:26.612Z,2908.00
2022-11-01T08:46:26.597Z,2992.00
2022-11-01T08:47:26.553Z,2924.00
2022-11-01T08:48:26.600Z,3144.00
2022-11-01T08:49:26.515Z,3204.00
2022-11-01T08:50:26.612Z,3268.00
2022-11-01T08:51:26.523Z,3216.00
2022-11-01T08:52:26.483Z,3420.00
2022-11-01T08:53:26.479Z,3724.00
2022-11-01T08:54:26.537Z,3804.00
2022-11-01T08:55:26.581Z,3972.00
2022-11-01T08:56:26.599Z,4284.00
2022-11-01T08:57:26.547Z,4788.00
2022-11-01T08:58:26.424Z,5184.00
2022-11-01T08:59:26.603Z,5720.00
2022-11-01T09:00:26.614Z,6476.00
2022-11-01T09:01:26.784Z,7620.00
2022-11-01T09:02:26.806Z,7932.00
2022-11-01T09:03:26.372Z,7608.00
2022-11-01T09:04:26.387Z,7600.00
2022-11-01T09:05:26.515Z,8148.00
2022-11-01T09:06:26.346Z,8184.00
2022-11-01T09:07:26.381Z,7876.00
2022-11-01T09:08:26.322Z,7072.00
2022-11-01T09:09:26.511Z,7472.00
2022-11-01T09:10:26.295Z,7636.00
2022-11-01T09:11:26.496Z,8344.00
2022-11-01T09:12:26.319Z,8380.00
2022-11-01T09:13:26.257Z,9348.00
2022-11-01T09:14:26.471Z,10048.00
2022-11-01T09:15:27.197Z,12152.00
2022-11-01T09:16:26.330Z,9756.00
2022-11-01T09:17:26.309Z,9120.00
2022-11-01T09:18:26.303Z,9840.00
2022-11-01T09:19:26.319Z,9744.00
2022-11-01T09:20:26.174Z,12084.00
2022-11-01T09:21:30.563Z,10836.00
2022-11-01T09:22:27.155Z,11452.00
2022-11-01T09:23:26.143Z,10944.00
2022-11-01T09:24:26.205Z,9616.00
2022-11-01T09:25:26.162Z,10608.00
2022-11-01T09:26:26.167Z,9572.00
2022-11-01T09:27:26.134Z,9904.00
2022-11-01T09:28:28.925Z,12332.00
2022-11-01T09:29:27.150Z,12560.00
2022-11-01T09:30:26.383Z,12040.00
2022-11-01T09:31:26.185Z,11288.00
2022-11-01T09:32:26.048Z,10952.00
2022-11-01T09:33:26.215Z,11668.00
2022-11-01T09:34:26.216Z,11260.00
2022-11-01T09:35:26.012Z,11428.00
2022-11-01T09:36:26.161Z,9716.00
2022-11-01T09:37:25.991Z,10964.00
2022-11-01T09:38:26.080Z,11628.00
2022-11-01T09:39:26.108Z,10876.00
2022-11-01T09:40:26.244Z,10228.00
2022-11-01T09:41:26.043Z,10020.00
2022-11-01T09:42:26.504Z,10080.00
2022-11-01T09:43:26.591Z,10512.00
2022-11-01T09:44:25.908Z,10412.00
2022-11-01T09:45:25.957Z,10700.00
2022-11-01T09:46:25.931Z,10908.00
2022-11-01T09:47:25.917Z,10264.00
2022-11-01T09:48:25.860Z,10472.00
2022-11-01T09:49:25.903Z,9216.00
2022-11-01T09:50:25.897Z,11736.00
2022-11-01T09:51:25.839Z,11516.00
2022-11-01T09:52:25.820Z,10836.00
2022-11-01T09:53:25.923Z,10488.00
2022-11-01T09:54:25.798Z,10244.00
2022-11-01T09:55:25.859Z,10240.00
2022-11-01T09:56:29.004Z,10432.00
2022-11-01T09:57:25.786Z,14640.00
2022-11-01T09:58:25.791Z,22112.00
2022-11-01T09:59:25.805Z,10176.00
2022-11-01T10:00:25.815Z,11384.00
2022-11-01T10:01:25.840Z,11200.00
2022-11-01T10:02:25.801Z,11536.00
2022-11-01T10:03:25.803Z,17792.00
2022-11-01T10:04:25.833Z,28320.00
2022-11-01T10:05:25.688Z,32320.00
2022-11-01T10:06:25.876Z,37280.00
2022-11-01T10:07:25.680Z,46784.00
2022-11-01T10:08:25.674Z,58080.00
2022-11-01T10:09:25.628Z,65472.00
2022-11-01T10:10:25.634Z,65952.00
2022-11-01T10:11:25.635Z,66176.00
2022-11-01T10:12:25.607Z,63360.00
2022-11-01T10:13:25.988Z,61152.00
2022-11-01T10:14:25.691Z,58944.00
2022-11-01T10:15:25.574Z,54976.00
2022-11-01T10:16:25.874Z,52256.00
2022-11-01T10:17:25.674Z,53216.00
2022-11-01T10:18:25.541Z,57280.00
2022-11-01T10:19:25.529Z,64352.00
2022-11-01T10:20:25.530Z,71488.00
2022-11-01T10:21:28.795Z,71936.00
2022-11-01T10:22:25.519Z,70144.00
2022-11-01T10:23:25.510Z,70624.00
2022-11-01T10:24:25.500Z,72704.00
2022-11-01T10:25:25.485Z,72352.00
2022-11-01T10:26:25.487Z,72864.00
2022-11-01T10:27:25.458Z,73952.00
2022-11-01T10:28:25.433Z,72064.00
2022-11-01T10:29:25.426Z,70560.00
2022-11-01T10:30:25.435Z,70880.00
2022-11-01T10:31:25.484Z,70816.00
2022-11-01T10:32:25.430Z,70400.00
2022-11-01T10:33:25.461Z,70656.00
2022-11-01T10:34:25.567Z,70464.00
2022-11-01T10:35:25.365Z,71008.00
2022-11-01T10:36:25.377Z,71200.00
2022-11-01T10:37:25.345Z,72832.00
2022-11-01T10:38:41.536Z,75104.00
2022-11-01T10:40:26.306Z,77856.00
2022-11-01T10:41:25.807Z,79488.00
2022-11-01T10:42:25.291Z,78464.00
2022-11-01T10:43:25.324Z,81408.00
2022-11-01T10:44:25.349Z,80192.00
2022-11-01T10:45:25.471Z,80416.00
2022-11-01T10:46:25.234Z,81920.00
2022-11-01T10:47:25.241Z,84128.00
2022-11-01T10:48:25.392Z,82848.00
2022-11-01T10:49:35.039Z,80256.00
2022-11-01T10:50:26.196Z,78144.00
2022-11-01T10:51:27.857Z,79200.00
2022-11-01T10:52:25.230Z,79552.00
2022-11-01T10:53:25.182Z,79776.00
2022-11-01T10:54:25.179Z,78336.00
2022-11-01T10:55:25.149Z,77952.00
2022-11-01T10:56:25.326Z,80320.00
2022-11-01T10:57:25.111Z,82048.00
2022-11-01T10:58:25.334Z,82464.00
2022-11-01T10:59:25.284Z,80288.00
2022-11-01T11:00:25.065Z,78752.00
2022-11-01T11:01:25.572Z,79488.00
2022-11-01T11:02:25.145Z,81248.00
2022-11-01T11:03:25.118Z,81216.00
2022-11-01T11:04:25.082Z,81984.00
2022-11-01T11:05:25.259Z,81952.00
2022-11-01T11:06:25.304Z,83104.00
2022-11-01T11:07:25.024Z,83136.00
2022-11-01T11:08:25.039Z,82368.00
2022-11-01T11:09:25.062Z,83072.00
2022-11-01T11:10:25.055Z,81024.00
2022-11-01T11:11:25.171Z,83328.00
2022-11-01T11:12:25.231Z,84480.00
2022-11-01T11:13:24.944Z,84352.00
2022-11-01T11:14:24.978Z,80608.00
2022-11-01T11:15:25.078Z,77888.00
2022-11-01T11:16:25.078Z,79456.00
2022-11-01T11:17:24.909Z,81536.00
2022-11-01T11:18:24.900Z,81568.00
2022-11-01T11:19:24.921Z,83488.00
2022-11-01T11:20:25.256Z,82784.00
2022-11-01T11:21:28.061Z,83424.00
2022-11-01T11:22:24.888Z,84352.00
2022-11-01T11:23:24.944Z,85184.00
2022-11-01T11:24:24.838Z,83232.00
2022-11-01T11:25:24.838Z,83712.00
2022-11-01T11:26:24.856Z,84576.00
2022-11-01T11:27:24.818Z,82944.00
2022-11-01T11:28:24.821Z,82208.00
2022-11-01T11:29:24.847Z,83296.00
2022-11-01T11:30:24.769Z,87040.00
2022-11-01T11:31:24.836Z,87872.00
2022-11-01T11:32:24.862Z,88704.00
2022-11-01T11:33:24.842Z,85472.00
2022-11-01T11:34:24.763Z,83648.00
2022-11-01T11:35:24.719Z,82432.00
2022-11-01T11:36:24.756Z,81696.00
2022-11-01T11:37:24.736Z,84256.00
2022-11-01T11:38:24.682Z,86912.00
2022-11-01T11:39:24.921Z,88256.00
2022-11-01T11:40:24.762Z,87424.00
2022-11-01T11:41:24.667Z,86656.00
2022-11-01T11:42:24.635Z,86144.00
2022-11-01T11:43:24.685Z,85760.00
2022-11-01T11:44:24.614Z,86400.00
2022-11-01T11:45:24.657Z,87776.00
2022-11-01T11:46:24.826Z,89088.00
2022-11-01T11:47:24.600Z,88032.00
2022-11-01T11:48:24.573Z,86496.00
2022-11-01T11:49:24.578Z,88736.00
2022-11-01T11:50:24.581Z,90112.00
2022-11-01T11:51:24.577Z,89088.00
2022-11-01T11:52:28.566Z,88672.00
2022-11-01T11:53:24.568Z,87616.00
2022-11-01T11:54:24.577Z,88736.00
2022-11-01T11:55:24.578Z,89280.00
2022-11-01T11:56:24.496Z,91104.00
2022-11-01T11:57:24.579Z,92352.00
2022-11-01T11:58:24.584Z,90048.00
2022-11-01T11:59:24.575Z,91648.00
2022-11-01T12:00:24.554Z,88288.00
2022-11-01T12:01:24.604Z,88032.00
2022-11-01T12:02:24.460Z,89184.00
2022-11-01T12:03:24.568Z,87840.00
2022-11-01T12:04:24.521Z,87552.00
2022-11-01T12:05:24.447Z,88672.00
2022-11-01T12:06:24.569Z,87360.00
2022-11-01T12:07:24.575Z,88096.00
2022-11-01T12:08:24.414Z,89632.00
2022-11-01T12:09:24.579Z,89152.00
2022-11-01T12:10:24.584Z,91712.00
2022-11-01T12:11:24.555Z,93312.00
2022-11-01T12:12:24.319Z,93536.00
2022-11-01T12:13:24.579Z,92608.00
2022-11-01T12:14:24.301Z,92384.00
2022-11-01T12:15:24.347Z,90624.00
2022-11-01T12:16:24.374Z,90528.00
2022-11-01T12:17:24.352Z,89504.00
2022-11-01T12:18:24.246Z,90848.00
2022-11-01T12:19:24.242Z,91712.00
2022-11-01T12:20:24.313Z,92032.00
2022-11-01T12:21:24.245Z,91936.00
2022-11-01T12:22:24.251Z,92800.00
2022-11-01T12:23:24.201Z,91936.00
2022-11-01T12:24:24.283Z,92096.00
2022-11-01T12:25:24.355Z,91488.00
2022-11-01T12:26:24.159Z,89664.00
2022-11-01T12:27:24.273Z,91584.00
2022-11-01T12:28:24.394Z,91584.00
2022-11-01T12:29:24.158Z,92960.00
2022-11-01T12:30:24.595Z,92256.00
2022-11-01T12:31:27.578Z,94848.00
2022-11-01T12:32:25.175Z,94624.00
2022-11-01T12:33:25.042Z,94880.00
2022-11-01T12:34:24.074Z,92608.00
2022-11-01T12:35:24.059Z,93824.00
2022-11-01T12:36:24.138Z,95776.00
2022-11-01T12:37:24.036Z,95008.00